createdAt,value
2023-02-04T00:00:58.459Z,9.719011
2023-02-04T00:01:58.423Z,9.718835
2023-02-04T00:02:58.465Z,9.718839
2023-02-04T00:03:58.447Z,9.718924
2023-02-04T00:04:58.402Z,9.718767
2023-02-04T00:05:58.457Z,9.719021
2023-02-04T00:06:58.390Z,9.719068
2023-02-04T00:07:58.363Z,9.719022
2023-02-04T00:08:58.346Z,9.719157
2023-02-04T00:09:58.395Z,9.718942
2023-02-04T00:10:58.373Z,9.719226
2023-02-04T00:11:58.346Z,9.719047
2023-02-04T00:12:58.343Z,9.719216
2023-02-04T00:13:58.327Z,9.719095
2023-02-04T00:14:58.290Z,9.719120
2023-02-04T00:15:58.338Z,9.719138
2023-02-04T00:16:58.283Z,9.719077
2023-02-04T00:17:58.301Z,9.719154
2023-02-04T00:18:58.272Z,9.719023
2023-02-04T00:19:58.275Z,9.719019
2023-02-04T00:20:58.251Z,9.719020
2023-02-04T00:21:58.232Z,9.719055
2023-02-04T00:22:58.224Z,9.719177
2023-02-04T00:23:58.203Z,9.719164
2023-02-04T00:24:58.203Z,9.719227
2023-02-04T00:25:58.206Z,9.719392
2023-02-04T00:26:58.186Z,9.719290
2023-02-04T00:27:58.207Z,9.719109
2023-02-04T00:28:58.202Z,9.719171
2023-02-04T00:29:58.163Z,9.719229
2023-02-04T00:30:58.147Z,9.719417
2023-02-04T00:31:58.200Z,9.719282
2023-02-04T00:32:58.120Z,9.719178
2023-02-04T00:33:58.137Z,9.719202
2023-02-04T00:34:58.100Z,9.719254
2023-02-04T00:35:58.094Z,9.719228
2023-02-04T00:36:58.085Z,9.719258
2023-02-04T00:37:58.090Z,9.719279
2023-02-04T00:38:58.095Z,9.719170
2023-02-04T00:39:58.069Z,9.719343
2023-02-04T00:40:58.054Z,9.719287
2023-02-04T00:41:58.028Z,9.719323
2023-02-04T00:42:58.076Z,9.719171
2023-02-04T00:43:58.028Z,9.718859
2023-02-04T00:44:58.017Z,9.719073
2023-02-04T00:45:58.108Z,9.719166
2023-02-04T00:46:57.991Z,9.719199
2023-02-04T00:47:57.973Z,9.719350
2023-02-04T00:48:57.981Z,9.719193
2023-02-04T00:49:57.964Z,9.719146
2023-02-04T00:51:00.951Z,9.719146
2023-02-04T00:51:57.935Z,9.719141
2023-02-04T00:52:57.934Z,9.719115
2023-02-04T00:53:57.946Z,9.719201
2023-02-04T00:54:57.918Z,9.719175
2023-02-04T00:55:57.919Z,9.719144
2023-02-04T00:56:57.891Z,9.719164
2023-02-04T00:57:57.917Z,9.719146
2023-02-04T00:58:57.880Z,9.719130
2023-02-04T00:59:57.846Z,9.719220
2023-02-04T01:00:57.878Z,9.719156
2023-02-04T01:01:57.855Z,9.719198
2023-02-04T01:02:57.879Z,9.719180
2023-02-04T01:03:57.844Z,9.719213
2023-02-04T01:04:57.797Z,9.719160
2023-02-04T01:05:57.830Z,9.719234
2023-02-04T01:06:57.785Z,9.719192
2023-02-04T01:07:57.773Z,9.719135
2023-02-04T01:08:57.830Z,9.719129
2023-02-04T01:09:57.771Z,9.719180
2023-02-04T01:10:57.782Z,9.719120
2023-02-04T01:11:57.775Z,9.719177
2023-02-04T01:12:57.738Z,9.719222
2023-02-04T01:13:57.726Z,9.719156
2023-02-04T01:14:57.732Z,9.719205
2023-02-04T01:15:57.708Z,9.719257
2023-02-04T01:17:29.580Z,9.719042
2023-02-04T01:17:57.679Z,9.719213
2023-02-04T01:18:57.636Z,9.719211
2023-02-04T01:19:57.655Z,9.719250
2023-02-04T01:20:57.633Z,9.719260
2023-02-04T01:21:57.625Z,9.719223
2023-02-04T01:22:57.632Z,9.719298
2023-02-04T01:23:57.604Z,9.719323
2023-02-04T01:24:57.585Z,9.719240
2023-02-04T01:25:57.579Z,9.719167
2023-02-04T01:26:57.584Z,9.719166
2023-02-04T01:27:57.592Z,9.719204
2023-02-04T01:28:57.573Z,9.719095
2023-02-04T01:29:57.552Z,9.719193
2023-02-04T01:30:57.606Z,9.719220
2023-02-04T01:31:57.563Z,9.719201
2023-02-04T01:32:57.534Z,9.719162
2023-02-04T01:33:57.508Z,9.719142
2023-02-04T01:34:57.496Z,9.719132
2023-02-04T01:35:57.480Z,9.719202
2023-02-04T01:36:57.479Z,9.719256
2023-02-04T01:37:57.498Z,9.719363
2023-02-04T01:38:57.450Z,9.719258
2023-02-04T01:39:58.450Z,9.719286
2023-02-04T01:40:57.446Z,9.719254
2023-02-04T01:41:57.442Z,9.719178
2023-02-04T01:42:57.436Z,9.719338
2023-02-04T01:43:57.407Z,9.719139
2023-02-04T01:44:57.406Z,9.719170
2023-02-04T01:45:57.495Z,9.719331
2023-02-04T01:46:57.403Z,9.719254
2023-02-04T01:47:57.394Z,9.719207
2023-02-04T01:48:57.367Z,9.719113
2023-02-04T01:49:57.375Z,9.719177
2023-02-04T01:50:57.352Z,9.719154
2023-02-04T01:51:57.328Z,9.719117
2023-02-04T01:52:57.332Z,9.719197
2023-02-04T01:53:57.318Z,9.719363
2023-02-04T01:54:57.325Z,9.719414
2023-02-04T01:55:57.299Z,9.719487
2023-02-04T01:56:57.292Z,9.719330
2023-02-04T01:57:57.281Z,9.719350
2023-02-04T01:58:57.280Z,9.719321
2023-02-04T01:59:57.261Z,9.719287
2023-02-04T02:00:57.280Z,9.719224
2023-02-04T02:01:57.305Z,9.719352
2023-02-04T02:02:57.230Z,9.719252
2023-02-04T02:03:57.223Z,9.719189
2023-02-04T02:04:57.215Z,9.719305
2023-02-04T02:05:57.214Z,9.719420
2023-02-04T02:06:57.222Z,9.719375
2023-02-04T02:07:57.217Z,9.719307
2023-02-04T02:08:57.171Z,9.719197
2023-02-04T02:09:57.175Z,9.719252
2023-02-04T02:10:57.177Z,9.719319
2023-02-04T02:11:57.135Z,9.719246
2023-02-04T02:12:57.131Z,9.719363
2023-02-04T02:13:57.130Z,9.719284
2023-02-04T02:14:57.130Z,9.719241
2023-02-04T02:15:57.109Z,9.719305
2023-02-04T02:16:57.199Z,9.719221
2023-02-04T02:17:57.107Z,9.719210
2023-02-04T02:18:58.086Z,9.719181
2023-02-04T02:19:57.072Z,9.719172
2023-02-04T02:20:57.072Z,9.719277
2023-02-04T02:21:57.070Z,9.719277
2023-02-04T02:22:57.030Z,9.719152
2023-02-04T02:23:57.027Z,9.719229
2023-02-04T02:24:57.017Z,9.719200
2023-02-04T02:25:57.020Z,9.719268
2023-02-04T02:26:57.033Z,9.719243
2023-02-04T02:27:57.021Z,9.719127
2023-02-04T02:28:56.995Z,9.719216
2023-02-04T02:29:56.969Z,9.719423
2023-02-04T02:30:57.020Z,9.719296
2023-02-04T02:31:57.010Z,9.719145
2023-02-04T02:32:56.951Z,9.719219
2023-02-04T02:33:56.954Z,9.719337
2023-02-04T02:34:56.915Z,9.719383
2023-02-04T02:35:56.918Z,9.719296
2023-02-04T02:36:56.902Z,9.719344
2023-02-04T02:37:56.886Z,9.719242
2023-02-04T02:38:56.906Z,9.719377
2023-02-04T02:39:56.864Z,9.719372
2023-02-04T02:40:56.870Z,9.719298
2023-02-04T02:41:56.848Z,9.719343
2023-02-04T02:42:56.837Z,9.719456
2023-02-04T02:43:56.821Z,9.719326
2023-02-04T02:44:56.837Z,9.719292
2023-02-04T02:45:56.846Z,9.719322
2023-02-04T02:46:56.811Z,9.719262
2023-02-04T02:47:56.789Z,9.719267
2023-02-04T02:48:56.785Z,9.719254
2023-02-04T02:49:56.800Z,9.719125
2023-02-04T02:50:56.759Z,9.719233
2023-02-04T02:51:56.768Z,9.719342
2023-02-04T02:52:56.740Z,9.719236
2023-02-04T02:53:56.731Z,9.719073
2023-02-04T02:54:56.718Z,9.719050
2023-02-04T02:55:56.711Z,9.719035
2023-02-04T02:56:56.727Z,9.719049
2023-02-04T02:57:56.691Z,9.719089
2023-02-04T02:58:56.682Z,9.719085
2023-02-04T02:59:56.669Z,9.719103
2023-02-04T03:00:56.721Z,9.718938
2023-02-04T03:01:56.672Z,9.719005
2023-02-04T03:02:56.659Z,9.719004
2023-02-04T03:03:56.636Z,9.719071
2023-02-04T03:04:56.613Z,9.719120
2023-02-04T03:05:56.614Z,9.719041
2023-02-04T03:06:56.757Z,9.719110
2023-02-04T03:07:56.593Z,9.719090
2023-02-04T03:08:56.582Z,9.719146
2023-02-04T03:09:56.566Z,9.719029
2023-02-04T03:10:56.561Z,9.719047
2023-02-04T03:11:56.556Z,9.719057
2023-02-04T03:12:56.540Z,9.719032
2023-02-04T03:13:56.522Z,9.719082
2023-02-04T03:14:56.522Z,9.719101
2023-02-04T03:15:56.529Z,9.719060
2023-02-04T03:16:56.526Z,9.719133
2023-02-04T03:17:56.542Z,9.719129
2023-02-04T03:18:56.470Z,9.719055
2023-02-04T03:19:56.503Z,9.719115
2023-02-04T03:20:56.515Z,9.719180
2023-02-04T03:21:56.468Z,9.719077
2023-02-04T03:22:56.463Z,9.719152
2023-02-04T03:23:56.441Z,9.719110
2023-02-04T03:24:56.437Z,9.718998
2023-02-04T03:25:56.449Z,9.719009
2023-02-04T03:26:56.437Z,9.719095
2023-02-04T03:27:56.497Z,9.719042
2023-02-04T03:28:56.398Z,9.718929
2023-02-04T03:29:56.381Z,9.718903
2023-02-04T03:30:56.558Z,9.718944
2023-02-04T03:31:56.521Z,9.718970
2023-02-04T03:32:56.346Z,9.718971
2023-02-04T03:33:56.348Z,9.718983
2023-02-04T03:34:56.340Z,9.719019
2023-02-04T03:35:56.324Z,9.718955
2023-02-04T03:36:56.336Z,9.718943
2023-02-04T03:37:56.312Z,9.719041
2023-02-04T03:38:56.300Z,9.718937
2023-02-04T03:39:56.289Z,9.718968
2023-02-04T03:40:56.277Z,9.718790
2023-02-04T03:41:56.285Z,9.719043
2023-02-04T03:42:56.250Z,9.719165
2023-02-04T03:43:56.245Z,9.718820
2023-02-04T03:44:56.252Z,9.718537
2023-02-04T03:45:56.284Z,9.718789
2023-02-04T03:46:56.238Z,9.718721
2023-02-04T03:47:56.211Z,9.718811
2023-02-04T03:48:56.229Z,9.718505
2023-02-04T03:49:56.195Z,9.718616
2023-02-04T03:50:56.176Z,9.718522
2023-02-04T03:51:56.175Z,9.718678
2023-02-04T03:52:56.165Z,9.718795
2023-02-04T03:53:56.177Z,9.718869
2023-02-04T03:54:56.171Z,9.718948
2023-02-04T03:55:56.140Z,9.718982
2023-02-04T03:56:56.129Z,9.718933
2023-02-04T03:57:56.113Z,9.718946
2023-02-04T03:58:56.109Z,9.718902
2023-02-04T03:59:56.119Z,9.718897
2023-02-04T04:00:56.094Z,9.718953
2023-02-04T04:01:56.151Z,9.718956
2023-02-04T04:02:56.136Z,9.718965
2023-02-04T04:03:56.068Z,9.718911
2023-02-04T04:04:56.057Z,9.718965
2023-02-04T04:05:56.056Z,9.719038
2023-02-04T04:06:56.051Z,9.719084
2023-02-04T04:07:56.051Z,9.718846
2023-02-04T04:08:56.019Z,9.718978
2023-02-04T04:09:56.004Z,9.719012
2023-02-04T04:10:55.985Z,9.719090
2023-02-04T04:11:55.995Z,9.719109
2023-02-04T04:12:55.985Z,9.719345
2023-02-04T04:13:55.961Z,9.719222
2023-02-04T04:14:55.971Z,9.719137
2023-02-04T04:15:55.964Z,9.719142
2023-02-04T04:16:55.952Z,9.719082
2023-02-04T04:17:55.941Z,9.719006
2023-02-04T04:18:55.926Z,9.719127
2023-02-04T04:19:55.920Z,9.719085
2023-02-04T04:20:55.902Z,9.719065
2023-02-04T04:21:55.887Z,9.719151
2023-02-04T04:22:55.881Z,9.719154
2023-02-04T04:23:55.889Z,9.719118
2023-02-04T04:24:55.853Z,9.719114
2023-02-04T04:25:55.848Z,9.719282
2023-02-04T04:26:55.827Z,9.719083
2023-02-04T04:27:55.877Z,9.719014
2023-02-04T04:28:55.827Z,9.718997
2023-02-04T04:29:55.802Z,9.718862
2023-02-04T04:30:55.831Z,9.718847
2023-02-04T04:31:55.862Z,9.719028
2023-02-04T04:32:55.776Z,9.719065
2023-02-04T04:33:55.778Z,9.719072
2023-02-04T04:34:55.747Z,9.719001
2023-02-04T04:35:55.772Z,9.719099
2023-02-04T04:36:55.729Z,9.719096
2023-02-04T04:37:55.715Z,9.719193
2023-02-04T04:38:55.706Z,9.719128
2023-02-04T04:39:55.699Z,9.719166
2023-02-04T04:40:55.705Z,9.719369
2023-02-04T04:41:55.705Z,9.719488
2023-02-04T04:42:55.667Z,9.719662
2023-02-04T04:43:55.655Z,9.719662
2023-02-04T04:44:55.672Z,9.719662
2023-02-04T04:45:55.633Z,9.719662
2023-02-04T04:46:55.683Z,9.719430
2023-02-04T04:47:55.636Z,9.719430
2023-02-04T04:48:55.614Z,9.719430
2023-02-04T04:49:55.602Z,9.719430
2023-02-04T04:50:55.593Z,9.719430
2023-02-04T04:51:55.572Z,9.719430
2023-02-04T04:52:55.590Z,9.719430
2023-02-04T04:53:55.571Z,9.719430
2023-02-04T04:54:55.555Z,9.719430
2023-02-04T04:55:55.542Z,9.719430
2023-02-04T04:56:55.531Z,9.719430
2023-02-04T04:57:55.531Z,9.719430
2023-02-04T04:58:55.512Z,9.719430
2023-02-04T04:59:55.499Z,9.719175
2023-02-04T05:00:55.521Z,9.718995
2023-02-04T05:01:55.475Z,9.719050
2023-02-04T05:02:55.468Z,9.718996
2023-02-04T05:03:55.488Z,9.719153
2023-02-04T05:04:55.523Z,9.719223
2023-02-04T05:05:55.447Z,9.719166
2023-02-04T05:06:55.432Z,9.719031
2023-02-04T05:07:55.431Z,9.719067
2023-02-04T05:08:55.427Z,9.719276
2023-02-04T05:09:55.416Z,9.719176
2023-02-04T05:10:55.401Z,9.719129
2023-02-04T05:11:55.412Z,9.719112
2023-02-04T05:12:55.381Z,9.719187
2023-02-04T05:13:55.363Z,9.719192
2023-02-04T05:14:55.365Z,9.719116
2023-02-04T05:15:55.382Z,9.719039
2023-02-04T05:16:55.364Z,9.719322
2023-02-04T05:17:55.324Z,9.719282
2023-02-04T05:18:55.324Z,9.719415
2023-02-04T05:19:55.330Z,9.719159
2023-02-04T05:20:55.301Z,9.719406
2023-02-04T05:21:55.297Z,9.719253
2023-02-04T05:22:55.284Z,9.719179
2023-02-04T05:23:55.283Z,9.719159
2023-02-04T05:24:55.278Z,9.719161
2023-02-04T05:25:55.252Z,9.719282
2023-02-04T05:26:55.246Z,9.719185
2023-02-04T05:27:55.246Z,9.719324
2023-02-04T05:28:55.237Z,9.719225
2023-02-04T05:29:55.224Z,9.719291
2023-02-04T05:30:55.239Z,9.719261
2023-02-04T05:31:55.222Z,9.719282
2023-02-04T05:32:55.187Z,9.719184
2023-02-04T05:33:55.188Z,9.719194
2023-02-04T05:34:55.192Z,9.719291
2023-02-04T05:35:55.155Z,9.719249
2023-02-04T05:36:55.174Z,9.719206
2023-02-04T05:37:55.143Z,9.719007
2023-02-04T05:38:55.130Z,9.719116
2023-02-04T05:39:55.107Z,9.719130
2023-02-04T05:40:55.110Z,9.719243
2023-02-04T05:41:55.118Z,9.719117
2023-02-04T05:42:55.088Z,9.719096
2023-02-04T05:43:55.083Z,9.718951
2023-02-04T05:44:55.085Z,9.719095
2023-02-04T05:45:55.175Z,9.718966
2023-02-04T05:46:55.081Z,9.719272
2023-02-04T05:47:55.051Z,9.719249
2023-02-04T05:48:55.039Z,9.719229
2023-02-04T05:49:55.030Z,9.719206
2023-02-04T05:50:55.015Z,9.719158
2023-02-04T05:51:55.013Z,9.719134
2023-02-04T05:52:55.004Z,9.719226
2023-02-04T05:53:55.983Z,9.719307
2023-02-04T05:54:54.964Z,9.719455
2023-02-04T05:55:54.964Z,9.719344
2023-02-04T05:56:54.946Z,9.719359
2023-02-04T05:57:54.962Z,9.719264
2023-02-04T05:58:54.957Z,9.719337
2023-02-04T05:59:54.927Z,9.719055
2023-02-04T06:00:54.917Z,9.719358
2023-02-04T06:01:54.917Z,9.719470
2023-02-04T06:02:54.913Z,9.719367
2023-02-04T06:03:54.899Z,9.719386
2023-02-04T06:04:54.868Z,9.719248
2023-02-04T06:05:54.866Z,9.719493
2023-02-04T06:06:54.879Z,9.719666
2023-02-04T06:07:54.840Z,9.719470
2023-02-04T06:08:54.833Z,9.719270
2023-02-04T06:09:54.825Z,9.719161
2023-02-04T06:10:54.817Z,9.719239
2023-02-04T06:11:54.807Z,9.719215
2023-02-04T06:12:54.807Z,9.719105
2023-02-04T06:13:54.805Z,9.719104
2023-02-04T06:14:54.772Z,9.719320
2023-02-04T06:15:54.759Z,9.719380
2023-02-04T06:16:54.773Z,9.719444
2023-02-04T06:17:54.763Z,9.719464
2023-02-04T06:18:54.742Z,9.719361
2023-02-04T06:19:54.725Z,9.719134
2023-02-04T06:20:54.704Z,9.719222
2023-02-04T06:21:54.715Z,9.719380
2023-02-04T06:22:54.721Z,9.719250
2023-02-04T06:23:54.674Z,9.719157
2023-02-04T06:24:54.668Z,9.719253
2023-02-04T06:25:54.669Z,9.719359
2023-02-04T06:26:54.680Z,9.719296
2023-02-04T06:27:54.668Z,9.719296
2023-02-04T06:28:54.637Z,9.719345
2023-02-04T06:29:54.652Z,9.719635
2023-02-04T06:30:54.734Z,9.719215
2023-02-04T06:31:54.695Z,9.719286
2023-02-04T06:32:54.604Z,9.719437
2023-02-04T06:33:54.614Z,9.719517
2023-02-04T06:34:54.587Z,9.719465
2023-02-04T06:35:54.582Z,9.719414
2023-02-04T06:36:54.589Z,9.719437
2023-02-04T06:37:54.555Z,9.719481
2023-02-04T06:38:54.546Z,9.719459
2023-02-04T06:39:54.573Z,9.719115
2023-02-04T06:40:54.532Z,9.719109
2023-02-04T06:41:54.513Z,9.719123
2023-02-04T06:42:54.537Z,9.719230
2023-02-04T06:43:54.497Z,9.719070
2023-02-04T06:44:54.515Z,9.719170
2023-02-04T06:45:54.523Z,9.719169
2023-02-04T06:46:54.464Z,9.719111
2023-02-04T06:47:54.470Z,9.719140
2023-02-04T06:48:54.445Z,9.719175
2023-02-04T06:49:54.463Z,9.719156
2023-02-04T06:50:54.423Z,9.719143
2023-02-04T06:51:54.423Z,9.719159
2023-02-04T06:52:54.434Z,9.719177
2023-02-04T06:53:54.403Z,9.719132
2023-02-04T06:54:54.383Z,9.719144
2023-02-04T06:55:54.383Z,9.719151
2023-02-04T06:56:54.362Z,9.719172
2023-02-04T06:57:54.376Z,9.719145
2023-02-04T06:58:54.370Z,9.719170
2023-02-04T06:59:54.334Z,9.719172
2023-02-04T07:00:54.346Z,9.719230
2023-02-04T07:01:54.338Z,9.719255
2023-02-04T07:02:54.410Z,9.719208
2023-02-04T07:03:54.327Z,9.719302
2023-02-04T07:04:54.310Z,9.719349
2023-02-04T07:05:54.288Z,9.719401
2023-02-04T07:06:54.281Z,9.719281
2023-02-04T07:07:54.265Z,9.719296
2023-02-04T07:08:54.255Z,9.719231
2023-02-04T07:09:54.258Z,9.719173
2023-02-04T07:10:54.242Z,9.719151
2023-02-04T07:11:54.233Z,9.719152
2023-02-04T07:12:54.208Z,9.719220
2023-02-04T07:13:54.232Z,9.719149
2023-02-04T07:14:54.195Z,9.719033
2023-02-04T07:15:54.274Z,9.719206
2023-02-04T07:16:54.191Z,9.719274
2023-02-04T07:18:26.076Z,9.719493
2023-02-04T07:18:54.173Z,9.719253
2023-02-04T07:19:54.156Z,9.719522
2023-02-04T07:20:54.183Z,9.719340
2023-02-04T07:21:54.166Z,9.719444
2023-02-04T07:22:54.146Z,9.719346
2023-02-04T07:23:54.156Z,9.719501
2023-02-04T07:24:54.119Z,9.719347
2023-02-04T07:25:54.133Z,9.719260
2023-02-04T07:26:54.107Z,9.719084
2023-02-04T07:27:54.121Z,9.719309
2023-02-04T07:28:54.086Z,9.719167
2023-02-04T07:29:54.087Z,9.719201
2023-02-04T07:30:55.159Z,9.719109
2023-02-04T07:31:54.167Z,9.719144
2023-02-04T07:32:54.066Z,9.719093
2023-02-04T07:33:54.067Z,9.719118
2023-02-04T07:34:54.086Z,9.719058
2023-02-04T07:35:54.022Z,9.719043
2023-02-04T07:36:54.128Z,9.719046
2023-02-04T07:37:54.039Z,9.719099
2023-02-04T07:38:53.980Z,9.719057
2023-02-04T07:39:53.967Z,9.719099
2023-02-04T07:40:53.966Z,9.719123
2023-02-04T07:41:53.959Z,9.719081
2023-02-04T07:42:53.960Z,9.719072
2023-02-04T07:43:53.937Z,9.719030
2023-02-04T07:44:53.947Z,9.719106
2023-02-04T07:45:53.951Z,9.719104
2023-02-04T07:46:53.902Z,9.719074
2023-02-04T07:47:53.902Z,9.719079
2023-02-04T07:48:53.937Z,9.719092
2023-02-04T07:49:53.930Z,9.719086
2023-02-04T07:50:53.854Z,9.719063
2023-02-04T07:51:53.855Z,9.719078
2023-02-04T07:52:53.860Z,9.719057
2023-02-04T07:53:53.844Z,9.719076
2023-02-04T07:54:53.823Z,9.719089
2023-02-04T07:55:53.868Z,9.719115
2023-02-04T07:56:53.837Z,9.719108
2023-02-04T07:57:53.793Z,9.719105
2023-02-04T07:58:53.789Z,9.719115
2023-02-04T07:59:53.803Z,9.719158
2023-02-04T08:00:53.846Z,9.719144
2023-02-04T08:01:53.902Z,9.719089
2023-02-04T08:02:53.822Z,9.719143
2023-02-04T08:03:53.740Z,9.719161
2023-02-04T08:04:53.731Z,9.719154
2023-02-04T08:05:53.719Z,9.719142
2023-02-04T08:06:54.042Z,9.719134
2023-02-04T08:07:53.721Z,9.719157
2023-02-04T08:08:53.680Z,9.719124
2023-02-04T08:09:53.677Z,9.719130
2023-02-04T08:10:53.718Z,9.719190
2023-02-04T08:11:53.693Z,9.719204
2023-02-04T08:12:53.677Z,9.719192
2023-02-04T08:13:53.852Z,9.719171
2023-02-04T08:14:53.739Z,9.719151
2023-02-04T08:15:53.634Z,9.719150
2023-02-04T08:16:55.454Z,9.719133
2023-02-04T08:17:53.598Z,9.719097
2023-02-04T08:18:53.595Z,9.719150
2023-02-04T08:19:53.598Z,9.719119
2023-02-04T08:20:53.584Z,9.719156
2023-02-04T08:21:53.586Z,9.719163
2023-02-04T08:22:53.582Z,9.719147
2023-02-04T08:23:53.548Z,9.719204
2023-02-04T08:24:53.565Z,9.719178
2023-02-04T08:25:53.529Z,9.719179
2023-02-04T08:26:53.515Z,9.719082
2023-02-04T08:27:53.522Z,9.719219
2023-02-04T08:28:53.518Z,9.719131
2023-02-04T08:29:53.485Z,9.719192
2023-02-04T08:30:53.594Z,9.719401
2023-02-04T08:31:53.510Z,9.719315
2023-02-04T08:32:53.456Z,9.719228
2023-02-04T08:33:53.461Z,9.719151
2023-02-04T08:34:53.446Z,9.719462
2023-02-04T08:35:53.461Z,9.719408
2023-02-04T08:36:53.417Z,9.719395
2023-02-04T08:37:53.413Z,9.719256
2023-02-04T08:38:53.465Z,9.719252
2023-02-04T08:39:53.468Z,9.719241
2023-02-04T08:40:53.374Z,9.719129
2023-02-04T08:41:53.385Z,9.719347
2023-02-04T08:42:53.360Z,9.719238
2023-02-04T08:43:53.346Z,9.719114
2023-02-04T08:44:53.375Z,9.719142
2023-02-04T08:45:53.356Z,9.719124
2023-02-04T08:46:53.412Z,9.719210
2023-02-04T08:47:53.339Z,9.719176
2023-02-04T08:48:53.336Z,9.719227
2023-02-04T08:49:54.077Z,9.719190
2023-02-04T08:50:53.294Z,9.719220
2023-02-04T08:51:53.297Z,9.719144
2023-02-04T08:52:53.261Z,9.719186
2023-02-04T08:53:53.304Z,9.719090
2023-02-04T08:54:53.651Z,9.719105
2023-02-04T08:55:53.255Z,9.719200
2023-02-04T08:56:53.267Z,9.719383
2023-02-04T08:57:53.259Z,9.719422
2023-02-04T08:58:53.222Z,9.719318
2023-02-04T08:59:53.228Z,9.719305
2023-02-04T09:00:53.297Z,9.719275
2023-02-04T09:01:53.258Z,9.719120
2023-02-04T09:02:53.457Z,9.719201
2023-02-04T09:03:53.225Z,9.719254
2023-02-04T09:04:53.196Z,9.719267
2023-02-04T09:05:53.355Z,9.719172
2023-02-04T09:06:53.174Z,9.719343
2023-02-04T09:07:53.211Z,9.719265
2023-02-04T09:08:53.199Z,9.719391
2023-02-04T09:09:53.122Z,9.719345
2023-02-04T09:10:53.232Z,9.719372
2023-02-04T09:11:53.125Z,9.719358
2023-02-04T09:12:53.160Z,9.719213
2023-02-04T09:13:53.118Z,9.719375
2023-02-04T09:14:53.078Z,9.719425
2023-02-04T09:15:54.273Z,9.719434
2023-02-04T09:16:54.076Z,9.719443
2023-02-04T09:17:53.095Z,9.719296
2023-02-04T09:18:53.097Z,9.719320
2023-02-04T09:19:53.057Z,9.719305
2023-02-04T09:20:53.016Z,9.719352
2023-02-04T09:21:53.045Z,9.719412
2023-02-04T09:22:52.991Z,9.719331
2023-02-04T09:23:53.002Z,9.719384
2023-02-04T09:24:53.023Z,9.719410
2023-02-04T09:25:53.012Z,9.719447
2023-02-04T09:26:52.960Z,9.719417
2023-02-04T09:27:52.970Z,9.719408
2023-02-04T09:28:52.934Z,9.719338
2023-02-04T09:29:52.938Z,9.719353
2023-02-04T09:30:53.090Z,9.719350
2023-02-04T09:31:53.015Z,9.719357
2023-02-04T09:32:53.374Z,9.719296
2023-02-04T09:33:52.921Z,9.719283
2023-02-04T09:34:53.251Z,9.719278
2023-02-04T09:35:52.895Z,9.719283
2023-02-04T09:36:52.895Z,9.719350
2023-02-04T09:37:52.866Z,9.719189
2023-02-04T09:38:52.862Z,9.719323
2023-02-04T09:39:52.862Z,9.719278
2023-02-04T09:40:52.863Z,9.719292
2023-02-04T09:41:52.863Z,9.719274
2023-02-04T09:42:52.870Z,9.719307
2023-02-04T09:43:52.916Z,9.719243
2023-02-04T09:44:52.796Z,9.719230
2023-02-04T09:45:52.805Z,9.719282
2023-02-04T09:46:52.818Z,9.719051
2023-02-04T09:47:52.773Z,9.719232
2023-02-04T09:48:52.767Z,9.719004
2023-02-04T09:49:52.816Z,9.719191
2023-02-04T09:50:52.740Z,9.719212
2023-02-04T09:51:52.772Z,9.719065
2023-02-04T09:52:52.737Z,9.718994
2023-02-04T09:53:52.785Z,9.719130
2023-02-04T09:54:52.701Z,9.718846
2023-02-04T09:55:52.689Z,9.719037
2023-02-04T09:56:52.747Z,9.718959
2023-02-04T09:57:52.694Z,9.718958
2023-02-04T09:58:52.674Z,9.718965
2023-02-04T09:59:52.639Z,9.719078
2023-02-04T10:00:52.698Z,9.719181
2023-02-04T10:01:53.649Z,9.719154
2023-02-04T10:02:52.598Z,9.719129
2023-02-04T10:03:52.716Z,9.719060
2023-02-04T10:04:52.578Z,9.719183
2023-02-04T10:05:52.578Z,9.719224
2023-02-04T10:06:52.600Z,9.719181
2023-02-04T10:07:52.577Z,9.719122
2023-02-04T10:08:52.579Z,9.719071
2023-02-04T10:09:52.532Z,9.718987
2023-02-04T10:10:52.526Z,9.719169
2023-02-04T10:11:52.538Z,9.718920
2023-02-04T10:12:52.501Z,9.718948
2023-02-04T10:13:52.561Z,9.719078
2023-02-04T10:14:52.491Z,9.718964
2023-02-04T10:15:52.501Z,9.719084
2023-02-04T10:16:52.541Z,9.719056
2023-02-04T10:17:52.457Z,9.719058
2023-02-04T10:18:52.454Z,9.719074
2023-02-04T10:19:52.423Z,9.718799
2023-02-04T10:20:52.493Z,9.718760
2023-02-04T10:21:52.418Z,9.718759
2023-02-04T10:22:52.519Z,9.718942
2023-02-04T10:23:52.395Z,9.718975
2023-02-04T10:24:52.387Z,9.719013
2023-02-04T10:25:52.390Z,9.719012
2023-02-04T10:26:52.377Z,9.719140
2023-02-04T10:27:52.426Z,9.719069
2023-02-04T10:28:52.384Z,9.719084
2023-02-04T10:29:52.347Z,9.719131
2023-02-04T10:30:52.399Z,9.719160
2023-02-04T10:31:52.475Z,9.719153
2023-02-04T10:32:52.309Z,9.719146
2023-02-04T10:33:52.351Z,9.719221
2023-02-04T10:34:52.293Z,9.719292
2023-02-04T10:35:52.270Z,9.719250
2023-02-04T10:36:52.263Z,9.719247
2023-02-04T10:37:52.261Z,9.719075
2023-02-04T10:38:52.269Z,9.719092
2023-02-04T10:39:52.230Z,9.719137
2023-02-04T10:40:52.496Z,9.719070
2023-02-04T10:41:52.281Z,9.719142
2023-02-04T10:42:52.187Z,9.719226
2023-02-04T10:43:52.186Z,9.719209
2023-02-04T10:44:52.217Z,9.719188
2023-02-04T10:45:52.230Z,9.719188
2023-02-04T10:46:54.269Z,9.719179
2023-02-04T10:47:52.197Z,9.719259
2023-02-04T10:48:52.154Z,9.719228
2023-02-04T10:49:52.140Z,9.719153
2023-02-04T10:50:52.834Z,9.719197
2023-02-04T10:51:52.125Z,9.719228
2023-02-04T10:52:52.143Z,9.719117
2023-02-04T10:53:52.129Z,9.719136
2023-02-04T10:54:52.092Z,9.719078
2023-02-04T10:55:52.103Z,9.719114
2023-02-04T10:56:52.079Z,9.719196
2023-02-04T10:57:52.071Z,9.719145
2023-02-04T10:58:52.079Z,9.719312
2023-02-04T10:59:52.086Z,9.719396
2023-02-04T11:00:52.062Z,9.719225
2023-02-04T11:01:52.079Z,9.719352
2023-02-04T11:02:52.013Z,9.719205
2023-02-04T11:03:52.514Z,9.719384
2023-02-04T11:04:52.996Z,9.719188
2023-02-04T11:05:52.006Z,9.719405
2023-02-04T11:06:51.985Z,9.719302
2023-02-04T11:07:51.998Z,9.719365
2023-02-04T11:08:51.980Z,9.719463
2023-02-04T11:09:51.948Z,9.719570
2023-02-04T11:10:51.953Z,9.719329
2023-02-04T11:11:51.939Z,9.719412
2023-02-04T11:12:51.979Z,9.719448
2023-02-04T11:13:51.915Z,9.719052
2023-02-04T11:14:51.900Z,9.719200
2023-02-04T11:15:51.952Z,9.719122
2023-02-04T11:16:51.870Z,9.719071
2023-02-04T11:17:51.874Z,9.719049
2023-02-04T11:18:51.887Z,9.719111
2023-02-04T11:19:51.866Z,9.719232
2023-02-04T11:20:52.170Z,9.718813
2023-02-04T11:21:51.831Z,9.718953
2023-02-04T11:22:51.834Z,9.718919
2023-02-04T11:23:51.834Z,9.718831
2023-02-04T11:24:51.852Z,9.718791
2023-02-04T11:25:51.793Z,9.719061
2023-02-04T11:26:51.822Z,9.719078
2023-02-04T11:27:51.991Z,9.719252
2023-02-04T11:28:51.943Z,9.719080
2023-02-04T11:29:51.812Z,9.719240
2023-02-04T11:30:51.810Z,9.719336
2023-02-04T11:31:51.904Z,9.718978
2023-02-04T11:32:51.727Z,9.718947
2023-02-04T11:33:51.785Z,9.718960
2023-02-04T11:34:51.795Z,9.718737
2023-02-04T11:35:51.709Z,9.718719
2023-02-04T11:36:51.746Z,9.718520
2023-02-04T11:37:51.700Z,9.718375
2023-02-04T11:38:51.671Z,9.718480
2023-02-04T11:39:51.681Z,9.718435
2023-02-04T11:40:51.665Z,9.718462
2023-02-04T11:41:51.642Z,9.718629
2023-02-04T11:42:51.681Z,9.718649
2023-02-04T11:43:51.635Z,9.718658
2023-02-04T11:44:51.622Z,9.718458